sensor_id;sensor_type;location;lat;lon;timestamp;pressure;altitude;pressure_sealevel;temperature;humidity
64340;BME280;50674;53.290;-9.080;2022-08-18T00:01:56;101392.84;;;15.67;93.33
64340;BME280;50674;53.290;-9.080;2022-08-18T00:07:29;101387.38;;;15.78;93.39
64340;BME280;50674;53.290;-9.080;2022-08-18T00:12:59;101375.63;;;15.79;93.48
64340;BME280;50674;53.290;-9.080;2022-08-18T00:18:28;101378.03;;;15.82;93.58
64340;BME280;50674;53.290;-9.080;2022-08-18T00:23:56;101361.72;;;15.74;94.09
64340;BME280;50674;53.290;-9.080;2022-08-18T00:29:25;101364.16;;;15.77;94.28
64340;BME280;50674;53.290;-9.080;2022-08-18T00:34:54;101358.78;;;15.77;94.46
64340;BME280;50674;53.290;-9.080;2022-08-18T00:40:28;101339.38;;;15.83;94.54
64340;BME280;50674;53.290;-9.080;2022-08-18T00:45:58;101334.19;;;15.91;93.88
64340;BME280;50674;53.290;-9.080;2022-08-18T00:51:41;101325.53;;;15.88;94.77
64340;BME280;50674;53.290;-9.080;2022-08-18T00:57:10;101311.38;;;15.95;94.27
64340;BME280;50674;53.290;-9.080;2022-08-18T01:02:42;101298.59;;;15.97;94.53
64340;BME280;50674;53.290;-9.080;2022-08-18T01:08:13;101289.81;;;15.95;94.77
64340;BME280;50674;53.290;-9.080;2022-08-18T01:13:43;101277.63;;;15.91;95.28
64340;BME280;50674;53.290;-9.080;2022-08-18T01:19:12;101287.41;;;15.92;95.22
64340;BME280;50674;53.290;-9.080;2022-08-18T01:25:01;101279.59;;;15.80;95.86
64340;BME280;50674;53.290;-9.080;2022-08-18T01:30:50;101279.44;;;15.81;95.69
64340;BME280;50674;53.290;-9.080;2022-08-18T01:36:20;101265.13;;;15.90;95.41
64340;BME280;50674;53.290;-9.080;2022-08-18T01:41:49;101266.13;;;15.80;96.08
64340;BME280;50674;53.290;-9.080;2022-08-18T01:47:18;101262.59;;;15.89;95.96
64340;BME280;50674;53.290;-9.080;2022-08-18T01:52:47;101247.00;;;15.83;95.93
64340;BME280;50674;53.290;-9.080;2022-08-18T01:58:17;101238.38;;;15.89;95.88
64340;BME280;50674;53.290;-9.080;2022-08-18T02:03:48;101237.09;;;15.93;95.76
64340;BME280;50674;53.290;-9.080;2022-08-18T02:09:20;101235.97;;;15.95;95.62
64340;BME280;50674;53.290;-9.080;2022-08-18T02:14:48;101230.59;;;15.95;95.54
64340;BME280;50674;53.290;-9.080;2022-08-18T02:20:20;101223.22;;;15.97;95.29
64340;BME280;50674;53.290;-9.080;2022-08-18T02:25:49;101225.31;;;15.94;95.63
64340;BME280;50674;53.290;-9.080;2022-08-18T02:31:19;101211.88;;;16.04;95.35
64340;BME280;50674;53.290;-9.080;2022-08-18T02:36:48;101201.38;;;16.01;95.82
64340;BME280;50674;53.290;-9.080;2022-08-18T02:42:18;101217.53;;;16.01;95.89
64340;BME280;50674;53.290;-9.080;2022-08-18T02:47:50;101196.56;;;16.04;95.62
64340;BME280;50674;53.290;-9.080;2022-08-18T02:53:19;101184.69;;;16.07;95.94
64340;BME280;50674;53.290;-9.080;2022-08-18T02:58:53;101193.03;;;16.13;95.73
64340;BME280;50674;53.290;-9.080;2022-08-18T03:01:20;101181.84;;;16.08;95.94
64340;BME280;50674;53.290;-9.080;2022-08-18T03:06:48;101173.47;;;16.11;96.15
64340;BME280;50674;53.290;-9.080;2022-08-18T03:12:17;101173.88;;;16.16;96.24
64340;BME280;50674;53.290;-9.080;2022-08-18T03:17:52;101177.28;;;16.09;96.64
64340;BME280;50674;53.290;-9.080;2022-08-18T03:23:21;101163.44;;;16.13;96.66
64340;BME280;50674;53.290;-9.080;2022-08-18T03:28:51;101151.66;;;16.14;96.53
64340;BME280;50674;53.290;-9.080;2022-08-18T03:34:21;101145.25;;;16.15;97.36
64340;BME280;50674;53.290;-9.080;2022-08-18T03:39:50;101143.97;;;16.19;97.22
64340;BME280;50674;53.290;-9.080;2022-08-18T03:45:26;101139.59;;;16.28;97.17
64340;BME280;50674;53.290;-9.080;2022-08-18T03:51:01;101129.50;;;16.30;97.43
64340;BME280;50674;53.290;-9.080;2022-08-18T03:56:31;101129.34;;;16.41;96.96
64340;BME280;50674;53.290;-9.080;2022-08-18T04:02:02;101139.53;;;16.48;97.09
64340;BME280;50674;53.290;-9.080;2022-08-18T04:07:31;101134.28;;;16.56;97.26
64340;BME280;50674;53.290;-9.080;2022-08-18T04:13:00;101126.19;;;16.56;97.47
64340;BME280;50674;53.290;-9.080;2022-08-18T04:18:32;101125.44;;;16.63;97.48
64340;BME280;50674;53.290;-9.080;2022-08-18T04:24:01;101110.28;;;16.62;97.83
64340;BME280;50674;53.290;-9.080;2022-08-18T04:29:31;101104.28;;;16.68;97.67
64340;BME280;50674;53.290;-9.080;2022-08-18T04:35:00;101097.19;;;16.67;98.16
64340;BME280;50674;53.290;-9.080;2022-08-18T04:40:29;101095.50;;;16.76;98.43
64340;BME280;50674;53.290;-9.080;2022-08-18T04:46:00;101091.53;;;16.80;98.53
64340;BME280;50674;53.290;-9.080;2022-08-18T04:51:29;101093.56;;;16.96;98.11
64340;BME280;50674;53.290;-9.080;2022-08-18T04:56:58;101086.63;;;16.93;98.42
64340;BME280;50674;53.290;-9.080;2022-08-18T05:02:26;101093.41;;;16.98;98.32
64340;BME280;50674;53.290;-9.080;2022-08-18T05:07:55;101078.19;;;17.06;97.93
64340;BME280;50674;53.290;-9.080;2022-08-18T05:13:25;101070.31;;;17.13;97.43
64340;BME280;50674;53.290;-9.080;2022-08-18T05:18:54;101073.50;;;17.26;96.84
64340;BME280;50674;53.290;-9.080;2022-08-18T05:24:23;101067.03;;;17.37;96.27
64340;BME280;50674;53.290;-9.080;2022-08-18T05:29:53;101088.56;;;17.47;95.40
64340;BME280;50674;53.290;-9.080;2022-08-18T05:35:28;101061.78;;;17.53;95.49
64340;BME280;50674;53.290;-9.080;2022-08-18T05:41:05;101075.06;;;17.64;95.14
64340;BME280;50674;53.290;-9.080;2022-08-18T05:46:40;101080.97;;;17.78;94.79
64340;BME280;50674;53.290;-9.080;2022-08-18T05:52:25;101070.22;;;17.86;95.14
64340;BME280;50674;53.290;-9.080;2022-08-18T05:58:03;101048.66;;;17.94;94.89
64340;BME280;50674;53.290;-9.080;2022-08-18T06:03:42;101048.75;;;18.02;94.48
64340;BME280;50674;53.290;-9.080;2022-08-18T06:09:18;101061.28;;;18.11;93.62
64340;BME280;50674;53.290;-9.080;2022-08-18T06:14:49;101053.09;;;18.21;93.08
64340;BME280;50674;53.290;-9.080;2022-08-18T06:20:26;101065.09;;;18.27;92.67
64340;BME280;50674;53.290;-9.080;2022-08-18T06:37:20;101034.78;;;18.41;92.25
64340;BME280;50674;53.290;-9.080;2022-08-18T06:42:52;101030.41;;;18.40;93.12
64340;BME280;50674;53.290;-9.080;2022-08-18T06:48:31;101018.25;;;18.44;93.02
64340;BME280;50674;53.290;-9.080;2022-08-18T06:54:04;101018.56;;;18.41;93.74
64340;BME280;50674;53.290;-9.080;2022-08-18T06:59:34;101013.69;;;18.45;93.52
64340;BME280;50674;53.290;-9.080;2022-08-18T07:05:14;101006.06;;;18.40;94.66
64340;BME280;50674;53.290;-9.080;2022-08-18T07:10:49;100987.69;;;18.44;94.55
64340;BME280;50674;53.290;-9.080;2022-08-18T07:22:05;101004.44;;;18.47;95.24
64340;BME280;50674;53.290;-9.080;2022-08-18T07:39:10;101000.59;;;18.58;95.45
64340;BME280;50674;53.290;-9.080;2022-08-18T07:44:36;100991.97;;;18.62;95.66
64340;BME280;50674;53.290;-9.080;2022-08-18T07:50:08;100991.28;;;18.60;96.34
64340;BME280;50674;53.290;-9.080;2022-08-18T07:55:37;101000.25;;;18.61;96.62
64340;BME280;50674;53.290;-9.080;2022-08-18T08:01:29;100973.06;;;18.62;96.92
64340;BME280;50674;53.290;-9.080;2022-08-18T08:07:04;100977.28;;;18.65;96.76
64340;BME280;50674;53.290;-9.080;2022-08-18T08:12:45;100984.53;;;18.65;96.98
64340;BME280;50674;53.290;-9.080;2022-08-18T08:18:25;100961.91;;;18.66;97.52
64340;BME280;50674;53.290;-9.080;2022-08-18T08:35:21;100959.94;;;18.76;98.12
64340;BME280;50674;53.290;-9.080;2022-08-18T08:41:01;100957.91;;;18.78;98.39
64340;BME280;50674;53.290;-9.080;2022-08-18T08:46:31;100947.09;;;18.86;98.78
64340;BME280;50674;53.290;-9.080;2022-08-18T08:52:10;100940.34;;;18.90;99.54
64340;BME280;50674;53.290;-9.080;2022-08-18T08:57:49;100936.66;;;19.07;99.30
64340;BME280;50674;53.290;-9.080;2022-08-18T09:20:27;100912.31;;;19.48;99.26
64340;BME280;50674;53.290;-9.080;2022-08-18T09:26:22;100920.09;;;19.68;99.00
64340;BME280;50674;53.290;-9.080;2022-08-18T09:49:39;100908.63;;;20.05;97.66
64340;BME280;50674;53.290;-9.080;2022-08-18T10:00:43;100890.13;;;20.17;98.37
64340;BME280;50674;53.290;-9.080;2022-08-18T10:06:13;100892.63;;;20.26;98.12
64340;BME280;50674;53.290;-9.080;2022-08-18T10:11:52;100888.84;;;20.36;97.92
64340;BME280;50674;53.290;-9.080;2022-08-18T10:17:38;100888.00;;;20.43;97.13
64340;BME280;50674;53.290;-9.080;2022-08-18T10:23:09;100890.16;;;20.48;96.88
64340;BME280;50674;53.290;-9.080;2022-08-18T10:28:53;100889.94;;;20.58;96.10
64340;BME280;50674;53.290;-9.080;2022-08-18T10:45:45;100892.56;;;20.74;95.82
64340;BME280;50674;53.290;-9.080;2022-08-18T10:51:34;100888.06;;;20.89;95.61
64340;BME280;50674;53.290;-9.080;2022-08-18T11:03:37;100882.63;;;21.12;94.74
64340;BME280;50674;53.290;-9.080;2022-08-18T11:08:46;100869.63;;;21.22;94.66
64340;BME280;50674;53.290;-9.080;2022-08-18T11:20:05;100876.09;;;21.74;93.20
64340;BME280;50674;53.290;-9.080;2022-08-18T11:25:35;100886.41;;;21.64;90.77
64340;BME280;50674;53.290;-9.080;2022-08-18T11:46:38;100885.94;;;21.90;89.29
64340;BME280;50674;53.290;-9.080;2022-08-18T11:52:02;100878.63;;;21.75;89.60
64340;BME280;50674;53.290;-9.080;2022-08-18T11:57:52;100882.59;;;21.73;89.73
64340;BME280;50674;53.290;-9.080;2022-08-18T12:09:21;100886.84;;;21.38;90.53
64340;BME280;50674;53.290;-9.080;2022-08-18T12:14:52;100889.22;;;21.56;90.79
64340;BME280;50674;53.290;-9.080;2022-08-18T12:20:22;100888.88;;;22.18;89.99
64340;BME280;50674;53.290;-9.080;2022-08-18T12:25:53;100881.72;;;22.68;85.94
64340;BME280;50674;53.290;-9.080;2022-08-18T12:31:23;100895.16;;;23.34;83.35
64340;BME280;50674;53.290;-9.080;2022-08-18T12:36:55;100901.63;;;24.24;76.98
64340;BME280;50674;53.290;-9.080;2022-08-18T12:42:24;100902.50;;;24.92;75.99
64340;BME280;50674;53.290;-9.080;2022-08-18T12:47:54;100897.94;;;25.79;72.06
64340;BME280;50674;53.290;-9.080;2022-08-18T12:53:24;100911.66;;;26.30;66.32
64340;BME280;50674;53.290;-9.080;2022-08-18T12:58:53;100913.03;;;26.66;68.08
64340;BME280;50674;53.290;-9.080;2022-08-18T13:04:22;100923.25;;;27.16;64.13
64340;BME280;50674;53.290;-9.080;2022-08-18T13:09:52;100920.94;;;27.44;60.48
64340;BME280;50674;53.290;-9.080;2022-08-18T13:15:26;100920.03;;;27.76;58.34
64340;BME280;50674;53.290;-9.080;2022-08-18T13:20:56;100936.19;;;27.84;54.94
64340;BME280;50674;53.290;-9.080;2022-08-18T13:26:27;100934.59;;;27.76;54.51
64340;BME280;50674;53.290;-9.080;2022-08-18T13:31:56;100942.06;;;27.87;54.66
64340;BME280;50674;53.290;-9.080;2022-08-18T13:37:27;100941.13;;;27.50;49.77
64340;BME280;50674;53.290;-9.080;2022-08-18T13:42:58;100940.84;;;26.63;55.81
64340;BME280;50674;53.290;-9.080;2022-08-18T13:48:27;100933.59;;;26.17;56.81
64340;BME280;50674;53.290;-9.080;2022-08-18T13:53:58;100944.19;;;25.41;58.68
64340;BME280;50674;53.290;-9.080;2022-08-18T13:59:28;100944.13;;;25.07;57.57
64340;BME280;50674;53.290;-9.080;2022-08-18T14:04:59;100944.59;;;25.31;57.14
64340;BME280;50674;53.290;-9.080;2022-08-18T14:10:29;100955.09;;;25.21;57.03
64340;BME280;50674;53.290;-9.080;2022-08-18T14:15:58;100947.75;;;25.61;59.82
64340;BME280;50674;53.290;-9.080;2022-08-18T14:21:28;100957.88;;;25.67;55.58
64340;BME280;50674;53.290;-9.080;2022-08-18T14:27:32;100944.59;;;25.31;56.33
64340;BME280;50674;53.290;-9.080;2022-08-18T14:36:33;100956.81;;;25.62;59.60
64340;BME280;50674;53.290;-9.080;2022-08-18T14:42:02;100960.38;;;25.69;54.83
64340;BME280;50674;53.290;-9.080;2022-08-18T14:47:32;100960.16;;;25.50;50.34
64340;BME280;50674;53.290;-9.080;2022-08-18T14:53:00;100959.13;;;25.65;52.56
64340;BME280;50674;53.290;-9.080;2022-08-18T14:58:30;100954.06;;;25.75;52.98
64340;BME280;50674;53.290;-9.080;2022-08-18T15:03:59;100954.47;;;26.05;48.38
64340;BME280;50674;53.290;-9.080;2022-08-18T15:09:28;100959.09;;;26.11;50.92
64340;BME280;50674;53.290;-9.080;2022-08-18T15:14:58;100960.34;;;26.15;47.77
64340;BME280;50674;53.290;-9.080;2022-08-18T15:20:27;100949.81;;;26.12;46.09
64340;BME280;50674;53.290;-9.080;2022-08-18T15:25:56;100953.03;;;25.89;47.91
64340;BME280;50674;53.290;-9.080;2022-08-18T15:31:25;100955.56;;;25.38;47.19
64340;BME280;50674;53.290;-9.080;2022-08-18T15:36:57;100960.59;;;25.34;45.44
64340;BME280;50674;53.290;-9.080;2022-08-18T15:42:26;100961.94;;;24.90;48.65
64340;BME280;50674;53.290;-9.080;2022-08-18T15:47:55;100975.00;;;23.84;50.75
64340;BME280;50674;53.290;-9.080;2022-08-18T15:53:25;100972.41;;;23.26;53.93
64340;BME280;50674;53.290;-9.080;2022-08-18T15:58:55;100966.19;;;22.60;55.97
64340;BME280;50674;53.290;-9.080;2022-08-18T16:04:24;100976.78;;;22.10;55.87
64340;BME280;50674;53.290;-9.080;2022-08-18T16:09:53;100984.31;;;21.70;58.45
64340;BME280;50674;53.290;-9.080;2022-08-18T16:15:23;100990.44;;;21.49;59.46
64340;BME280;50674;53.290;-9.080;2022-08-18T16:20:52;100984.78;;;21.36;61.12
64340;BME280;50674;53.290;-9.080;2022-08-18T16:26:21;100990.03;;;21.38;62.82
64340;BME280;50674;53.290;-9.080;2022-08-18T16:31:50;100996.34;;;21.30;62.77
64340;BME280;50674;53.290;-9.080;2022-08-18T16:37:19;101004.53;;;21.22;63.09
64340;BME280;50674;53.290;-9.080;2022-08-18T16:42:47;101014.84;;;21.26;65.57
64340;BME280;50674;53.290;-9.080;2022-08-18T16:48:21;101001.81;;;20.99;64.32
64340;BME280;50674;53.290;-9.080;2022-08-18T16:53:51;101000.84;;;20.92;64.28
64340;BME280;50674;53.290;-9.080;2022-08-18T16:59:20;100997.22;;;20.99;64.43
64340;BME280;50674;53.290;-9.080;2022-08-18T17:05:07;100996.34;;;21.07;62.91
64340;BME280;50674;53.290;-9.080;2022-08-18T17:10:39;101009.41;;;21.03;64.48
64340;BME280;50674;53.290;-9.080;2022-08-18T17:16:08;101015.78;;;20.88;63.70
64340;BME280;50674;53.290;-9.080;2022-08-18T17:21:38;101028.69;;;20.86;64.45
64340;BME280;50674;53.290;-9.080;2022-08-18T17:27:10;101019.41;;;20.72;63.80
64340;BME280;50674;53.290;-9.080;2022-08-18T17:43:43;101036.59;;;20.48;66.50
64340;BME280;50674;53.290;-9.080;2022-08-18T17:49:45;101042.22;;;20.38;64.93
64340;BME280;50674;53.290;-9.080;2022-08-18T17:55:28;101044.75;;;20.31;65.17
64340;BME280;50674;53.290;-9.080;2022-08-18T18:01:02;101047.69;;;20.22;64.06
64340;BME280;50674;53.290;-9.080;2022-08-18T18:12:27;101059.41;;;20.06;65.75
64340;BME280;50674;53.290;-9.080;2022-08-18T18:17:55;101054.16;;;19.96;65.29
64340;BME280;50674;53.290;-9.080;2022-08-18T18:23:28;101060.78;;;19.77;62.78
64340;BME280;50674;53.290;-9.080;2022-08-18T18:29:14;101062.59;;;19.69;63.80
64340;BME280;50674;53.290;-9.080;2022-08-18T18:35:00;101052.94;;;19.58;64.80
64340;BME280;50674;53.290;-9.080;2022-08-18T18:40:35;101052.75;;;19.43;65.21
64340;BME280;50674;53.290;-9.080;2022-08-18T18:46:14;101053.09;;;19.40;66.27
64340;BME280;50674;53.290;-9.080;2022-08-18T19:03:16;101055.28;;;19.28;66.17
64340;BME280;50674;53.290;-9.080;2022-08-18T19:09:07;101051.34;;;19.23;65.74
64340;BME280;50674;53.290;-9.080;2022-08-18T19:15:14;101066.75;;;19.22;67.46
64340;BME280;50674;53.290;-9.080;2022-08-18T19:20:45;101069.25;;;19.07;71.62
64340;BME280;50674;53.290;-9.080;2022-08-18T19:26:19;101072.56;;;18.93;72.31
64340;BME280;50674;53.290;-9.080;2022-08-18T19:32:04;101074.56;;;18.83;73.13
64340;BME280;50674;53.290;-9.080;2022-08-18T19:47:04;101097.66;;;18.69;75.08
64340;BME280;50674;53.290;-9.080;2022-08-18T20:10:33;101101.03;;;18.45;78.71
64340;BME280;50674;53.290;-9.080;2022-08-18T20:21:44;101122.66;;;18.45;78.75
64340;BME280;50674;53.290;-9.080;2022-08-18T20:27:32;101120.13;;;18.44;77.88
64340;BME280;50674;53.290;-9.080;2022-08-18T20:33:09;101125.00;;;18.40;79.73
64340;BME280;50674;53.290;-9.080;2022-08-18T20:44:22;101131.41;;;18.39;77.86
64340;BME280;50674;53.290;-9.080;2022-08-18T20:55:28;101133.44;;;18.19;75.71
64340;BME280;50674;53.290;-9.080;2022-08-18T21:01:03;101141.56;;;18.19;74.99
64340;BME280;50674;53.290;-9.080;2022-08-18T21:06:35;101143.41;;;18.19;73.22
64340;BME280;50674;53.290;-9.080;2022-08-18T21:12:05;101139.16;;;18.16;74.63
64340;BME280;50674;53.290;-9.080;2022-08-18T21:17:35;101134.31;;;18.20;75.71
64340;BME280;50674;53.290;-9.080;2022-08-18T21:23:08;101132.91;;;18.16;76.66
64340;BME280;50674;53.290;-9.080;2022-08-18T21:28:38;101135.56;;;18.07;76.72
64340;BME280;50674;53.290;-9.080;2022-08-18T21:34:11;101140.59;;;18.02;76.47
64340;BME280;50674;53.290;-9.080;2022-08-18T21:39:48;101143.06;;;17.96;76.70
64340;BME280;50674;53.290;-9.080;2022-08-18T21:45:18;101139.41;;;17.87;76.38
64340;BME280;50674;53.290;-9.080;2022-08-18T21:50:51;101141.44;;;17.85;75.88
64340;BME280;50674;53.290;-9.080;2022-08-18T21:56:25;101126.69;;;17.79;76.30
64340;BME280;50674;53.290;-9.080;2022-08-18T22:01:55;101122.84;;;17.82;75.93
64340;BME280;50674;53.290;-9.080;2022-08-18T22:07:24;101126.38;;;17.82;76.52
64340;BME280;50674;53.290;-9.080;2022-08-18T22:12:54;101118.16;;;17.84;76.26
64340;BME280;50674;53.290;-9.080;2022-08-18T22:18:41;101121.22;;;17.89;73.61
64340;BME280;50674;53.290;-9.080;2022-08-18T22:24:14;101135.09;;;17.94;72.39
64340;BME280;50674;53.290;-9.080;2022-08-18T22:29:50;101136.19;;;18.01;72.28
64340;BME280;50674;53.290;-9.080;2022-08-18T22:35:20;101122.53;;;18.03;72.38
64340;BME280;50674;53.290;-9.080;2022-08-18T22:40:49;101140.13;;;18.07;73.21
64340;BME280;50674;53.290;-9.080;2022-08-18T22:46:19;101138.09;;;18.09;78.00
64340;BME280;50674;53.290;-9.080;2022-08-18T22:51:48;101140.19;;;17.97;80.38
64340;BME280;50674;53.290;-9.080;2022-08-18T22:57:18;101156.00;;;17.74;81.39
64340;BME280;50674;53.290;-9.080;2022-08-18T23:02:47;101159.22;;;17.60;82.39
64340;BME280;50674;53.290;-9.080;2022-08-18T23:08:15;101154.75;;;17.51;81.79
64340;BME280;50674;53.290;-9.080;2022-08-18T23:13:44;101147.25;;;17.45;84.11
64340;BME280;50674;53.290;-9.080;2022-08-18T23:19:15;101152.47;;;17.46;83.92
64340;BME280;50674;53.290;-9.080;2022-08-18T23:24:45;101153.19;;;17.48;84.08
64340;BME280;50674;53.290;-9.080;2022-08-18T23:30:14;101150.47;;;17.48;83.88
64340;BME280;50674;53.290;-9.080;2022-08-18T23:35:44;101153.34;;;17.47;83.91
64340;BME280;50674;53.290;-9.080;2022-08-18T23:41:13;101159.97;;;17.52;84.83
64340;BME280;50674;53.290;-9.080;2022-08-18T23:46:43;101161.22;;;17.58;84.64
64340;BME280;50674;53.290;-9.080;2022-08-18T23:52:12;101173.84;;;17.57;85.01
64340;BME280;50674;53.290;-9.080;2022-08-18T23:57:41;101166.84;;;17.47;85.95
